createdAt,value
2019-05-18T00:00:43.716Z,100329.06
2019-05-18T00:02:51.244Z,100335.76
2019-05-18T00:04:58.720Z,100326.34
2019-05-18T00:07:06.243Z,100322.50
2019-05-18T00:09:13.764Z,100321.10
2019-05-18T00:11:21.157Z,100322.75
2019-05-18T00:13:28.745Z,100324.02
2019-05-18T00:15:36.431Z,100327.89
2019-05-18T00:17:43.851Z,100323.23
2019-05-18T00:19:51.301Z,100327.89
2019-05-18T00:21:58.714Z,100331.44
2019-05-18T00:24:06.403Z,100325.86
2019-05-18T00:26:13.864Z,100322.17
2019-05-18T00:28:21.484Z,100323.66
2019-05-18T00:30:28.975Z,100315.16
2019-05-18T00:32:36.507Z,100310.91
2019-05-18T00:34:43.941Z,100304.84
2019-05-18T00:36:52.876Z,100304.13
2019-05-18T00:39:00.263Z,100314.73
2019-05-18T00:41:07.763Z,100308.81
2019-05-18T00:43:15.173Z,100310.14
2019-05-18T00:45:22.617Z,100302.21
2019-05-18T00:47:41.009Z,100299.30
2019-05-18T00:49:39.237Z,100297.39
2019-05-18T00:51:46.711Z,100294.97
2019-05-18T00:53:54.264Z,100289.76
2019-05-18T00:56:01.798Z,100282.77
2019-05-18T00:58:09.451Z,100285.62
2019-05-18T01:00:17.898Z,100287.69
2019-05-18T01:02:25.446Z,100291.83
2019-05-18T01:04:32.872Z,100284.13
2019-05-18T01:06:40.336Z,100285.13
2019-05-18T01:08:48.649Z,100274.02
2019-05-18T01:10:57.020Z,100274.92
2019-05-18T01:13:04.476Z,100281.06
2019-05-18T01:15:15.574Z,100281.16
2019-05-18T01:17:23.082Z,100283.77
2019-05-18T01:19:30.521Z,100285.28
2019-05-18T01:21:38.076Z,100281.97
2019-05-18T01:23:45.570Z,100280.80
2019-05-18T01:25:53.046Z,100281.45
2019-05-18T01:28:00.526Z,100282.22
2019-05-18T01:30:10.258Z,100273.00
2019-05-18T01:32:17.904Z,100275.88
2019-05-18T01:34:25.356Z,100269.55
2019-05-18T01:36:33.100Z,100266.70
2019-05-18T01:38:40.687Z,100258.27
2019-05-18T01:40:48.240Z,100255.71
2019-05-18T01:42:55.727Z,100251.80
2019-05-18T01:45:15.725Z,100252.81
2019-05-18T01:47:12.411Z,100242.31
2019-05-18T01:49:19.863Z,100244.05
2019-05-18T01:51:27.408Z,100236.23
2019-05-18T01:53:34.839Z,100232.09
2019-05-18T01:55:42.262Z,100236.23
2019-05-18T01:57:49.670Z,100236.73
2019-05-18T01:59:57.213Z,100241.34
2019-05-18T02:02:04.757Z,100237.27
2019-05-18T02:04:12.224Z,100236.64
2019-05-18T02:06:19.816Z,100226.67
2019-05-18T02:08:27.309Z,100223.28
2019-05-18T02:10:35.033Z,100220.98
2019-05-18T02:12:42.491Z,100218.74
2019-05-18T02:14:49.889Z,100221.04
2019-05-18T02:16:57.345Z,100220.20
2019-05-18T02:19:05.637Z,100224.50
2019-05-18T02:21:13.117Z,100222.42
2019-05-18T02:23:20.495Z,100227.98
2019-05-18T02:25:27.889Z,100222.67
2019-05-18T02:27:35.387Z,100225.06
2019-05-18T02:29:43.980Z,100215.79
2019-05-18T02:31:51.374Z,100222.69
2019-05-18T02:33:58.803Z,100221.94
2019-05-18T02:36:06.424Z,100221.89
2019-05-18T02:38:15.833Z,100222.16
2019-05-18T02:40:23.253Z,100226.95
2019-05-18T02:42:31.059Z,100229.39
2019-05-18T02:44:38.543Z,100230.66
2019-05-18T02:46:45.960Z,100236.02
2019-05-18T02:48:53.470Z,100228.64
2019-05-18T02:51:00.904Z,100225.06
2019-05-18T02:53:08.392Z,100236.84
2019-05-18T02:55:16.057Z,100235.21
2019-05-18T02:57:23.473Z,100242.00
2019-05-18T02:59:31.014Z,100239.36
2019-05-18T03:01:39.454Z,100235.46
2019-05-18T03:03:46.994Z,100226.67
2019-05-18T03:05:54.403Z,100231.00
2019-05-18T03:08:01.751Z,100230.59
2019-05-18T03:10:10.574Z,100239.41
2019-05-18T03:12:17.961Z,100244.36
2019-05-18T03:14:25.339Z,100243.16
2019-05-18T03:16:32.842Z,100244.84
2019-05-18T03:18:40.372Z,100242.29
2019-05-18T03:20:47.908Z,100233.98
2019-05-18T03:22:55.388Z,100239.83
2019-05-18T03:25:02.927Z,100246.45
2019-05-18T03:27:10.342Z,100248.81
2019-05-18T03:29:17.890Z,100242.74
2019-05-18T03:31:25.409Z,100238.16
2019-05-18T03:33:32.934Z,100238.70
2019-05-18T03:35:40.409Z,100232.59
2019-05-18T03:37:47.834Z,100245.78
2019-05-18T03:39:55.275Z,100237.08
2019-05-18T03:42:02.762Z,100237.63
2019-05-18T03:44:10.167Z,100236.48
2019-05-18T03:46:17.571Z,100229.11
2019-05-18T03:48:25.082Z,100232.51
2019-05-18T03:50:32.558Z,100225.09
2019-05-18T03:52:39.953Z,100238.06
2019-05-18T03:54:47.388Z,100232.23
2019-05-18T03:56:54.799Z,100228.25
2019-05-18T03:59:02.546Z,100230.91
2019-05-18T04:01:10.023Z,100232.97
2019-05-18T04:03:17.463Z,100235.72
2019-05-18T04:05:24.985Z,100236.56
2019-05-18T04:07:32.426Z,100241.88
2019-05-18T04:09:39.866Z,100234.40
2019-05-18T04:11:47.240Z,100235.24
2019-05-18T04:13:54.625Z,100231.90
2019-05-18T04:16:02.090Z,100239.70
2019-05-18T04:18:09.527Z,100244.75
2019-05-18T04:20:17.016Z,100246.92
2019-05-18T04:22:24.416Z,100252.38
2019-05-18T04:24:31.855Z,100266.63
2019-05-18T04:26:39.265Z,100293.83
2019-05-18T04:28:46.813Z,100291.92
2019-05-18T04:30:54.300Z,100284.31
2019-05-18T04:33:01.858Z,100268.55
2019-05-18T04:35:09.863Z,100277.39
2019-05-18T04:37:17.333Z,100283.53
2019-05-18T04:39:24.850Z,100270.27
2019-05-18T04:41:32.287Z,100271.11
2019-05-18T04:43:39.777Z,100275.77
2019-05-18T04:45:47.291Z,100274.29
2019-05-18T04:47:54.739Z,100275.01
2019-05-18T04:50:05.690Z,100260.16
2019-05-18T04:52:11.256Z,100245.11
2019-05-18T04:54:18.723Z,100230.24
2019-05-18T04:56:26.151Z,100233.99
2019-05-18T04:58:33.659Z,100233.99
2019-05-18T05:00:41.129Z,100242.77
2019-05-18T05:02:48.540Z,100242.77
2019-05-18T05:04:56.866Z,100259.26
2019-05-18T05:07:04.463Z,100264.47
2019-05-18T05:09:12.018Z,100269.48
2019-05-18T05:11:19.347Z,100279.90
2019-05-18T05:13:26.804Z,100276.41
2019-05-18T05:15:34.475Z,100270.23
2019-05-18T05:17:41.964Z,100267.41
2019-05-18T05:19:49.446Z,100261.08
2019-05-18T05:21:57.002Z,100256.61
2019-05-18T05:24:04.729Z,100255.70
2019-05-18T05:26:12.226Z,100250.59
2019-05-18T05:28:19.723Z,100261.41
2019-05-18T05:30:27.080Z,100257.20
2019-05-18T05:32:34.540Z,100245.73
2019-05-18T05:34:41.997Z,100246.08
2019-05-18T05:36:49.505Z,100251.16
2019-05-18T05:38:57.037Z,100259.02
2019-05-18T05:41:05.325Z,100254.84
2019-05-18T05:43:12.914Z,100255.09
2019-05-18T05:45:20.421Z,100257.90
2019-05-18T05:47:28.067Z,100262.82
2019-05-18T05:49:35.465Z,100263.80
2019-05-18T05:51:43.238Z,100267.38
2019-05-18T05:53:50.777Z,100263.80
2019-05-18T05:55:58.373Z,100245.55
2019-05-18T05:58:06.094Z,100232.54
2019-05-18T06:00:14.383Z,100228.41
2019-05-18T06:02:22.037Z,100227.44
2019-05-18T06:04:29.599Z,100229.06
2019-05-18T06:06:37.134Z,100223.23
2019-05-18T06:08:45.423Z,100213.66
2019-05-18T06:10:52.889Z,100213.74
2019-05-18T06:13:00.390Z,100206.03
2019-05-18T06:15:10.157Z,100204.86
2019-05-18T06:17:17.570Z,100208.64
2019-05-18T06:19:25.150Z,100219.06
2019-05-18T06:21:32.713Z,100213.36
2019-05-18T06:23:40.318Z,100208.88
2019-05-18T06:25:47.824Z,100180.62
2019-05-18T06:27:55.383Z,100187.31
2019-05-18T06:30:03.222Z,100198.27
2019-05-18T06:32:10.691Z,100191.05
2019-05-18T06:34:18.185Z,100194.58
2019-05-18T06:36:25.728Z,100188.91
2019-05-18T06:38:33.210Z,100181.30
2019-05-18T06:40:41.797Z,100169.77
2019-05-18T06:42:49.290Z,100168.38
2019-05-18T06:44:56.715Z,100184.89
2019-05-18T06:47:04.576Z,100185.13
2019-05-18T06:49:12.034Z,100172.98
2019-05-18T06:51:19.620Z,100158.38
2019-05-18T06:53:27.291Z,100157.64
2019-05-18T06:55:36.164Z,100163.66
2019-05-18T06:57:45.091Z,100169.55
2019-05-18T06:59:53.233Z,100172.84
2019-05-18T07:02:00.937Z,100172.84
2019-05-18T07:04:08.494Z,100160.61
2019-05-18T07:06:16.162Z,100163.41
2019-05-18T07:08:24.061Z,100168.20
2019-05-18T07:10:32.498Z,100160.26
2019-05-18T07:12:40.609Z,100154.95
2019-05-18T07:14:48.537Z,100149.54
2019-05-18T07:16:56.193Z,100148.21
2019-05-18T07:19:03.746Z,100153.88
2019-05-18T07:21:21.830Z,100146.84
2019-05-18T07:23:20.799Z,100134.81
2019-05-18T07:25:28.859Z,100133.00
2019-05-18T07:27:36.653Z,100129.98
2019-05-18T07:29:44.201Z,100139.38
2019-05-18T07:31:51.976Z,100144.81
2019-05-18T07:33:59.418Z,100163.78
2019-05-18T07:36:07.026Z,100190.59
2019-05-18T07:38:14.829Z,100197.44
2019-05-18T07:40:22.728Z,100193.11
2019-05-18T07:42:30.312Z,100176.33
2019-05-18T07:44:38.020Z,100167.41
2019-05-18T07:46:46.687Z,100174.81
2019-05-18T07:48:54.470Z,100183.97
2019-05-18T07:51:02.047Z,100199.09
2019-05-18T07:53:10.607Z,100198.36
2019-05-18T07:55:18.451Z,100216.27
2019-05-18T07:57:26.222Z,100225.45
2019-05-18T07:59:33.768Z,100231.72
2019-05-18T08:01:41.507Z,100259.86
2019-05-18T08:03:49.128Z,100299.23
2019-05-18T08:05:56.709Z,100315.38
2019-05-18T08:08:04.406Z,100312.67
2019-05-18T08:10:12.720Z,100300.97
2019-05-18T08:12:20.517Z,100292.86
2019-05-18T08:14:28.185Z,100289.60
2019-05-18T08:16:36.033Z,100279.57
2019-05-18T08:18:43.594Z,100280.75
2019-05-18T08:20:51.560Z,100277.56
2019-05-18T08:22:59.049Z,100256.60
2019-05-18T08:25:07.267Z,100239.34
2019-05-18T08:27:15.068Z,100227.53
2019-05-18T08:29:22.881Z,100224.77
2019-05-18T08:31:30.916Z,100226.23
2019-05-18T08:33:39.334Z,100218.79
2019-05-18T08:35:47.533Z,100206.86
2019-05-18T08:37:55.911Z,100195.98
2019-05-18T08:40:03.482Z,100190.91
2019-05-18T08:42:11.131Z,100193.58
2019-05-18T08:44:18.821Z,100206.63
2019-05-18T08:46:26.780Z,100199.00
2019-05-18T08:48:34.531Z,100207.98
2019-05-18T08:50:42.347Z,100201.95
2019-05-18T08:52:50.065Z,100197.23
2019-05-18T08:54:57.729Z,100187.08
2019-05-18T08:57:05.249Z,100182.14
2019-05-18T08:59:13.724Z,100178.39
2019-05-18T09:01:21.351Z,100168.12
2019-05-18T09:03:28.989Z,100159.25
2019-05-18T09:05:36.688Z,100169.37
2019-05-18T09:07:44.544Z,100172.02
2019-05-18T09:09:52.308Z,100179.36
2019-05-18T09:12:00.018Z,100176.48
2019-05-18T09:14:07.719Z,100174.98
2019-05-18T09:16:15.658Z,100180.58
2019-05-18T09:18:23.258Z,100180.86
2019-05-18T09:20:31.942Z,100181.86
2019-05-18T09:22:39.978Z,100182.52
2019-05-18T09:24:47.705Z,100183.58
2019-05-18T09:26:55.397Z,100183.53
2019-05-18T09:29:02.966Z,100186.86
2019-05-18T09:31:10.464Z,100182.30
2019-05-18T09:33:18.024Z,100186.14
2019-05-18T09:35:25.898Z,100178.70
2019-05-18T09:37:33.925Z,100193.13
2019-05-18T09:39:41.886Z,100179.19
2019-05-18T09:41:49.956Z,100178.15
2019-05-18T09:43:57.796Z,100181.02
2019-05-18T09:46:05.811Z,100182.01
2019-05-18T09:48:13.576Z,100187.05
2019-05-18T09:50:21.630Z,100180.82
2019-05-18T09:52:44.214Z,100178.26
2019-05-18T09:54:38.502Z,100183.69
2019-05-18T09:56:46.049Z,100190.88
2019-05-18T09:58:53.681Z,100191.30
2019-05-18T10:01:01.612Z,100192.93
2019-05-18T10:03:09.256Z,100195.91
2019-05-18T10:05:17.033Z,100202.58
2019-05-18T10:07:24.715Z,100195.20
2019-05-18T10:09:38.797Z,100200.81
2019-05-18T10:11:42.036Z,100200.63
2019-05-18T10:13:49.718Z,100205.62
2019-05-18T10:15:57.375Z,100212.05
2019-05-18T10:18:04.911Z,100194.89
2019-05-18T10:20:13.286Z,100203.48
2019-05-18T10:22:20.881Z,100199.39
2019-05-18T10:24:28.406Z,100198.70
2019-05-18T10:26:36.056Z,100201.87
2019-05-18T10:28:43.676Z,100204.62
2019-05-18T10:30:51.297Z,100204.91
2019-05-18T10:32:59.030Z,100195.91
2019-05-18T10:35:07.407Z,100195.47
2019-05-18T10:37:15.193Z,100193.61
2019-05-18T10:39:22.753Z,100189.75
2019-05-18T10:41:30.424Z,100197.14
2019-05-18T10:43:38.003Z,100195.75
2019-05-18T10:45:45.616Z,100190.66
2019-05-18T10:47:53.095Z,100192.80
2019-05-18T10:50:01.002Z,100183.78
2019-05-18T10:52:08.612Z,100187.11
2019-05-18T10:54:16.124Z,100194.84
2019-05-18T10:56:24.851Z,100197.52
2019-05-18T10:58:32.502Z,100184.36
2019-05-18T11:00:40.066Z,100177.70
2019-05-18T11:02:47.904Z,100185.04
2019-05-18T11:04:55.547Z,100177.45
2019-05-18T11:07:04.243Z,100172.77
2019-05-18T11:09:12.092Z,100166.51
2019-05-18T11:11:19.730Z,100174.52
2019-05-18T11:13:27.516Z,100172.55
2019-05-18T11:15:35.284Z,100174.67
2019-05-18T11:17:43.091Z,100171.66
2019-05-18T11:19:50.640Z,100171.72
2019-05-18T11:21:58.404Z,100168.28
2019-05-18T11:24:06.410Z,100165.66
2019-05-18T11:26:15.313Z,100158.08
2019-05-18T11:28:23.111Z,100146.01
2019-05-18T11:30:31.007Z,100153.27
2019-05-18T11:32:38.942Z,100158.30
2019-05-18T11:34:46.982Z,100156.73
2019-05-18T11:36:54.745Z,100161.42
2019-05-18T11:39:02.592Z,100163.33
2019-05-18T11:41:10.278Z,100158.98
2019-05-18T11:43:17.803Z,100155.55
2019-05-18T11:45:25.959Z,100160.17
2019-05-18T11:47:33.609Z,100159.08
2019-05-18T11:49:41.624Z,100163.09
2019-05-18T11:51:49.299Z,100162.36
2019-05-18T11:53:58.567Z,100161.75
2019-05-18T11:56:06.773Z,100167.05
2019-05-18T11:58:14.701Z,100163.78
2019-05-18T12:00:23.784Z,100163.80
2019-05-18T12:02:31.412Z,100172.75
2019-05-18T12:04:38.997Z,100167.87
2019-05-18T12:06:46.792Z,100158.86
2019-05-18T12:08:54.256Z,100162.32
2019-05-18T12:11:02.073Z,100155.09
2019-05-18T12:13:09.810Z,100152.53
2019-05-18T12:15:18.178Z,100153.55
2019-05-18T12:17:26.096Z,100157.45
2019-05-18T12:19:33.643Z,100149.36
2019-05-18T12:21:41.113Z,100143.63
2019-05-18T12:23:48.719Z,100153.13
2019-05-18T12:25:56.465Z,100151.66
2019-05-18T12:28:04.125Z,100142.86
2019-05-18T12:30:13.024Z,100146.38
2019-05-18T12:32:20.547Z,100144.16
2019-05-18T12:34:28.060Z,100130.36
2019-05-18T12:36:35.578Z,100123.99
2019-05-18T12:38:43.144Z,100129.98
2019-05-18T12:40:50.822Z,100120.20
2019-05-18T12:42:58.688Z,100119.99
2019-05-18T12:45:08.316Z,100117.09
2019-05-18T12:47:16.337Z,100115.55
2019-05-18T12:49:24.049Z,100115.11
2019-05-18T12:51:31.992Z,100103.77
2019-05-18T12:53:39.526Z,100105.25
2019-05-18T12:55:47.144Z,100095.55
2019-05-18T12:57:54.733Z,100097.10
2019-05-18T13:00:02.677Z,100097.26
2019-05-18T13:02:10.435Z,100082.56
2019-05-18T13:04:18.220Z,100083.66
2019-05-18T13:06:25.884Z,100074.84
2019-05-18T13:08:33.404Z,100087.19
2019-05-18T13:10:40.857Z,100086.98
2019-05-18T13:12:48.440Z,100082.62
2019-05-18T13:14:55.926Z,100080.09
2019-05-18T13:17:03.734Z,100078.73
2019-05-18T13:19:11.581Z,100084.00
2019-05-18T13:21:19.059Z,100079.97
2019-05-18T13:23:26.866Z,100078.03
2019-05-18T13:25:34.510Z,100076.28
2019-05-18T13:27:42.040Z,100078.44
2019-05-18T13:29:49.566Z,100073.81
2019-05-18T13:31:57.183Z,100066.70
2019-05-18T13:34:04.934Z,100069.58
2019-05-18T13:36:12.379Z,100070.16
2019-05-18T13:38:21.262Z,100067.80
2019-05-18T13:40:31.185Z,100059.30
2019-05-18T13:42:54.335Z,100062.55
2019-05-18T13:45:04.788Z,100065.34
2019-05-18T13:47:13.238Z,100056.59
2019-05-18T13:49:22.419Z,100055.48
2019-05-18T13:51:30.338Z,100057.09
2019-05-18T13:53:37.918Z,100054.74
2019-05-18T13:55:45.645Z,100054.68
2019-05-18T13:58:14.864Z,100057.83
2019-05-18T14:00:25.188Z,100058.80
2019-05-18T14:02:32.685Z,100056.64
2019-05-18T14:04:59.113Z,100045.20
2019-05-18T14:07:06.888Z,100044.88
2019-05-18T14:09:14.763Z,100044.22
2019-05-18T14:11:22.500Z,100044.88
2019-05-18T14:13:30.267Z,100038.23
2019-05-18T14:15:38.107Z,100045.33
2019-05-18T14:17:45.829Z,100041.99
2019-05-18T14:19:53.806Z,100045.28
2019-05-18T14:22:01.306Z,100038.83
2019-05-18T14:24:08.857Z,100043.53
2019-05-18T14:26:35.140Z,100046.20
2019-05-18T14:28:42.830Z,100049.66
2019-05-18T14:30:51.836Z,100039.87
2019-05-18T14:32:59.551Z,100033.27
2019-05-18T14:35:08.147Z,100027.77
2019-05-18T14:37:15.958Z,100031.70
2019-05-18T14:39:24.305Z,100034.53
2019-05-18T14:41:31.907Z,100036.23
2019-05-18T14:43:39.838Z,100036.55
2019-05-18T14:45:49.457Z,100036.27
2019-05-18T14:47:56.650Z,100030.34
2019-05-18T14:50:04.999Z,100034.83
2019-05-18T14:52:12.535Z,100026.08
2019-05-18T14:54:24.989Z,100026.87
2019-05-18T14:56:29.673Z,100029.46
2019-05-18T14:58:37.251Z,100019.58
2019-05-18T15:00:45.050Z,100020.06
2019-05-18T15:02:53.018Z,100025.20
2019-05-18T15:05:00.673Z,100019.16
2019-05-18T15:07:08.470Z,100024.78
2019-05-18T15:09:16.056Z,100015.48
2019-05-18T15:11:24.038Z,100022.82
2019-05-18T15:13:31.800Z,100022.48
2019-05-18T15:15:39.474Z,100016.11
2019-05-18T15:17:46.961Z,100010.47
2019-05-18T15:19:54.430Z,100002.48
2019-05-18T15:22:02.153Z,100006.13
2019-05-18T15:24:10.052Z,100002.80
2019-05-18T15:26:17.713Z,99999.72
2019-05-18T15:28:25.453Z,99996.70
2019-05-18T15:30:33.248Z,99997.34
2019-05-18T15:32:40.893Z,99999.53
2019-05-18T15:34:48.420Z,99993.00
2019-05-18T15:36:56.487Z,99997.85
2019-05-18T15:39:06.123Z,100001.43
2019-05-18T15:41:14.402Z,99993.73
2019-05-18T15:43:22.695Z,99984.77
2019-05-18T15:45:31.148Z,99990.98
2019-05-18T15:47:39.931Z,99985.93
2019-05-18T15:49:48.278Z,99981.59
2019-05-18T15:51:56.070Z,99983.75
2019-05-18T15:54:04.261Z,99978.20
2019-05-18T15:56:12.955Z,99977.41
2019-05-18T15:58:21.392Z,99976.52
2019-05-18T16:00:29.729Z,99966.75
2019-05-18T16:02:38.420Z,99967.93
2019-05-18T16:04:46.397Z,99966.44
2019-05-18T16:06:54.785Z,99963.06
2019-05-18T16:09:02.842Z,99955.35
2019-05-18T16:11:10.645Z,99958.39
2019-05-18T16:13:18.641Z,99957.37
2019-05-18T16:15:27.080Z,99964.91
2019-05-18T16:17:39.342Z,99967.73
2019-05-18T16:19:44.817Z,99961.70
2019-05-18T16:21:52.957Z,99969.42
2019-05-18T16:24:00.830Z,99977.11
2019-05-18T16:26:20.737Z,99981.49
2019-05-18T16:28:18.757Z,99985.05
2019-05-18T16:30:27.371Z,99986.07
2019-05-18T16:32:36.368Z,99992.27
2019-05-18T16:34:44.645Z,99989.03
2019-05-18T16:36:52.814Z,99991.25
2019-05-18T16:39:00.934Z,99991.16
2019-05-18T16:41:09.544Z,99989.78
2019-05-18T16:43:17.361Z,99996.48
2019-05-18T16:45:26.137Z,99994.49
2019-05-18T16:47:34.215Z,99982.40
2019-05-18T16:49:42.071Z,99990.06
2019-05-18T16:51:50.551Z,99995.41
2019-05-18T16:53:59.663Z,100002.11
2019-05-18T16:56:08.194Z,99999.31
2019-05-18T16:58:16.612Z,100000.63
2019-05-18T17:00:28.034Z,100002.73
2019-05-18T17:02:37.180Z,100004.16
2019-05-18T17:04:45.333Z,100003.21
2019-05-18T17:06:54.059Z,100003.60
2019-05-18T17:09:02.204Z,100002.59
2019-05-18T17:11:10.903Z,100004.82
2019-05-18T17:13:19.247Z,100015.01
2019-05-18T17:15:29.964Z,100003.45
2019-05-18T17:17:37.716Z,99997.39
2019-05-18T17:19:46.197Z,99987.91
2019-05-18T17:21:54.892Z,99986.38
2019-05-18T17:24:03.402Z,99983.38
2019-05-18T17:26:11.950Z,99984.33
2019-05-18T17:28:20.765Z,99990.84
2019-05-18T17:30:29.847Z,99992.80
2019-05-18T17:32:38.793Z,100002.84
2019-05-18T17:34:48.168Z,100010.30
2019-05-18T17:36:56.788Z,100017.02
2019-05-18T17:39:07.449Z,100013.53
2019-05-18T17:41:16.148Z,100004.36
2019-05-18T17:43:24.464Z,100009.88
2019-05-18T17:45:32.671Z,99999.42
2019-05-18T17:47:41.180Z,99999.83
2019-05-18T17:49:49.593Z,100006.00
2019-05-18T17:51:57.799Z,100005.56
2019-05-18T17:54:06.561Z,100010.77
2019-05-18T17:56:14.839Z,100017.31
2019-05-18T17:58:23.300Z,100019.43
2019-05-18T18:00:31.341Z,100013.77
2019-05-18T18:02:39.727Z,100015.10
2019-05-18T18:04:54.191Z,100007.28
2019-05-18T18:07:01.568Z,100002.05
2019-05-18T18:09:10.636Z,100001.40
2019-05-18T18:11:19.748Z,100001.40
2019-05-18T18:13:28.221Z,99997.53
2019-05-18T18:15:37.056Z,100008.34
2019-05-18T18:17:45.524Z,100004.39
2019-05-18T18:19:54.643Z,100003.97
2019-05-18T18:22:02.398Z,100007.03
2019-05-18T18:24:10.938Z,100011.30
2019-05-18T18:26:19.694Z,100009.77
2019-05-18T18:28:27.784Z,100013.64
2019-05-18T18:30:36.255Z,100018.56
2019-05-18T18:32:45.367Z,100018.55
2019-05-18T18:34:53.553Z,100013.86
2019-05-18T18:37:01.700Z,100023.72
2019-05-18T18:39:11.371Z,100022.36
2019-05-18T18:41:19.851Z,100022.61
2019-05-18T18:43:28.184Z,100022.05
2019-05-18T18:45:37.093Z,100024.25
2019-05-18T18:47:45.550Z,100033.67
2019-05-18T18:49:53.817Z,100027.09
2019-05-18T18:52:02.273Z,100029.91
2019-05-18T18:54:12.611Z,100025.96
2019-05-18T18:56:19.996Z,100026.50
2019-05-18T18:58:27.821Z,100032.94
2019-05-18T19:00:38.101Z,100036.52
2019-05-18T19:02:49.004Z,100038.48
2019-05-18T19:04:57.519Z,100042.26
2019-05-18T19:07:09.007Z,100034.25
2019-05-18T19:09:16.142Z,100039.79
2019-05-18T19:11:24.484Z,100042.73
2019-05-18T19:13:34.789Z,100041.02
2019-05-18T19:15:42.973Z,100035.12
2019-05-18T19:17:51.458Z,100028.53
2019-05-18T19:19:59.820Z,100027.13
2019-05-18T19:22:08.191Z,100027.56
2019-05-18T19:24:16.783Z,100020.31
2019-05-18T19:26:24.408Z,100014.01
2019-05-18T19:28:33.780Z,100010.43
2019-05-18T19:30:42.781Z,100007.33
2019-05-18T19:32:50.778Z,100010.34
2019-05-18T19:35:00.805Z,100009.52
2019-05-18T19:37:09.445Z,100003.69
2019-05-18T19:39:17.369Z,100005.86
2019-05-18T19:41:25.206Z,100006.49
2019-05-18T19:43:32.861Z,100002.28
2019-05-18T19:45:40.470Z,99992.27
2019-05-18T19:47:48.250Z,99989.59
2019-05-18T19:49:55.850Z,99991.59
2019-05-18T19:52:03.850Z,99988.90
2019-05-18T19:54:11.616Z,99991.50
2019-05-18T19:56:19.508Z,99984.17
2019-05-18T19:58:27.616Z,99990.29
2019-05-18T20:00:36.020Z,99985.92
2019-05-18T20:02:43.744Z,99985.59
2019-05-18T20:05:06.550Z,99988.63
2019-05-18T20:07:01.262Z,99996.02
2019-05-18T20:09:09.657Z,99988.17
2019-05-18T20:11:18.459Z,99985.63
2019-05-18T20:13:26.031Z,99980.55
2019-05-18T20:15:33.760Z,99978.17
2019-05-18T20:17:41.619Z,99982.09
2019-05-18T20:19:49.152Z,99972.13
2019-05-18T20:21:56.635Z,99975.58
2019-05-18T20:24:04.281Z,99971.55
2019-05-18T20:26:11.895Z,99975.97
2019-05-18T20:28:23.647Z,99978.83
2019-05-18T20:30:29.384Z,99971.58
2019-05-18T20:32:37.196Z,99969.29
2019-05-18T20:34:44.872Z,99965.63
2019-05-18T20:36:52.376Z,99961.30
2019-05-18T20:39:00.040Z,99963.96
2019-05-18T20:41:07.706Z,99964.09
2019-05-18T20:43:15.352Z,99965.91
2019-05-18T20:45:22.964Z,99970.54
2019-05-18T20:47:30.537Z,99980.86
2019-05-18T20:49:38.071Z,99978.82
2019-05-18T20:51:45.745Z,99978.02
2019-05-18T20:53:53.230Z,99981.02
2019-05-18T20:56:01.332Z,99979.53
2019-05-18T20:58:09.169Z,99972.24
2019-05-18T21:00:18.568Z,99972.95
2019-05-18T21:02:25.981Z,99973.91
2019-05-18T21:04:33.568Z,99975.42
2019-05-18T21:06:41.180Z,99981.09
2019-05-18T21:08:48.713Z,99983.92
2019-05-18T21:10:57.392Z,99985.09
2019-05-18T21:13:04.964Z,99986.09
2019-05-18T21:15:13.405Z,99984.71
2019-05-18T21:17:21.001Z,99989.62
2019-05-18T21:19:28.563Z,99991.58
2019-05-18T21:21:36.230Z,99989.75
2019-05-18T21:23:43.895Z,99986.59
2019-05-18T21:25:51.468Z,99984.63
2019-05-18T21:27:58.953Z,99981.38
2019-05-18T21:30:06.974Z,99978.42
2019-05-18T21:32:15.082Z,99977.45
2019-05-18T21:34:22.685Z,99977.29
2019-05-18T21:36:30.214Z,99978.91
2019-05-18T21:38:37.795Z,99981.50
2019-05-18T21:40:45.366Z,99984.16
2019-05-18T21:42:53.206Z,99979.67
2019-05-18T21:45:01.210Z,99972.30
2019-05-18T21:47:08.932Z,99976.30
2019-05-18T21:49:16.891Z,99965.63
2019-05-18T21:51:24.989Z,99969.63
2019-05-18T21:53:32.669Z,99967.25
2019-05-18T21:55:40.156Z,99964.95
2019-05-18T21:57:48.359Z,99966.54
2019-05-18T21:59:56.155Z,99976.66
2019-05-18T22:02:04.099Z,99971.62
2019-05-18T22:04:12.026Z,99963.16
2019-05-18T22:06:19.612Z,99971.88
2019-05-18T22:08:27.129Z,99969.95
2019-05-18T22:10:34.614Z,99967.88
2019-05-18T22:12:42.216Z,99971.45
2019-05-18T22:14:49.951Z,99977.03
2019-05-18T22:16:57.505Z,99977.48
2019-05-18T22:19:05.709Z,99979.03
2019-05-18T22:21:13.497Z,99984.15
2019-05-18T22:23:21.504Z,99986.53
2019-05-18T22:25:29.007Z,99985.27
2019-05-18T22:27:36.773Z,99985.41
2019-05-18T22:29:44.445Z,99991.56
2019-05-18T22:31:51.967Z,99981.89
2019-05-18T22:33:59.463Z,99988.06
2019-05-18T22:36:06.953Z,99982.86
2019-05-18T22:38:14.495Z,99978.02
2019-05-18T22:40:22.372Z,99983.86
2019-05-18T22:42:29.896Z,99981.02
2019-05-18T22:44:37.477Z,99984.19
2019-05-18T22:46:44.976Z,99986.23
2019-05-18T22:48:52.475Z,99987.60
2019-05-18T22:50:59.932Z,99989.59
2019-05-18T22:53:07.577Z,99991.97
2019-05-18T22:55:15.353Z,99985.72
2019-05-18T22:57:22.773Z,99981.29
2019-05-18T22:59:30.202Z,99984.29
2019-05-18T23:01:37.667Z,99972.09
2019-05-18T23:03:45.574Z,99974.34
2019-05-18T23:05:53.106Z,99970.75
2019-05-18T23:08:00.583Z,99967.04
2019-05-18T23:10:08.467Z,99962.83
2019-05-18T23:12:15.910Z,99960.78
2019-05-18T23:14:23.435Z,99964.78
2019-05-18T23:16:30.899Z,99957.75
2019-05-18T23:18:39.382Z,99956.48
2019-05-18T23:20:46.869Z,99961.22
2019-05-18T23:22:54.532Z,99955.18
2019-05-18T23:25:02.036Z,99956.11
2019-05-18T23:27:09.748Z,99951.21
2019-05-18T23:29:17.177Z,99946.20
2019-05-18T23:31:24.681Z,99952.42
2019-05-18T23:33:32.230Z,99950.28
2019-05-18T23:35:39.676Z,99953.56
2019-05-18T23:37:47.187Z,99953.84
2019-05-18T23:39:54.696Z,99959.51
2019-05-18T23:42:02.356Z,99958.55
2019-05-18T23:44:09.870Z,99965.33
2019-05-18T23:46:17.321Z,99965.39
2019-05-18T23:48:25.668Z,99965.45
2019-05-18T23:50:33.583Z,99971.05
2019-05-18T23:52:41.009Z,99968.67
2019-05-18T23:54:48.413Z,99967.86
2019-05-18T23:56:55.884Z,99969.73
2019-05-18T23:59:03.386Z,99980.65
